Terminal Aerodrome Forecast
Issued by NWS Paducah, KY

Home | Current Version | Previous Version | Text Only | Print | Product List | Glossary Off
Versions: 1 2 3 4 5 6 7 8 9 10 11 12 13 14 15 16 17 18 19 20 21 22 23 24 25

603
FTUS43 KPAH 271210 AAA
TAFEVV
TAF AMD
KEVV 271210Z 2712/2812 00000KT 6SM BR OVC003
     FM271400 VRB04KT P6SM BKN035
     FM280100 VRB03KT 6SM BR VCSH SCT040 BKN150 PROB30 2806/2812 TS
      BKN035CB=

USA.gov is the U.S. government's official web portal to all federal, state and local government web resources and services.